createdAt,value
2022-09-11T00:02:17.653Z,14.57
2022-09-11T00:04:49.050Z,14.55
2022-09-11T00:07:20.400Z,14.54
2022-09-11T00:09:52.018Z,14.59
2022-09-11T00:12:23.351Z,14.68
2022-09-11T00:14:54.658Z,14.38
2022-09-11T00:17:26.023Z,14.61
2022-09-11T00:19:57.452Z,14.51
2022-09-11T00:22:28.750Z,14.47
2022-09-11T00:25:00.297Z,14.23
2022-09-11T00:27:31.637Z,14.54
2022-09-11T00:30:03.580Z,14.46
2022-09-11T00:32:34.881Z,14.63
2022-09-11T00:35:06.814Z,14.30
2022-09-11T00:37:38.213Z,14.39
2022-09-11T00:40:10.126Z,14.65
2022-09-11T00:42:42.298Z,14.59
2022-09-11T00:45:32.333Z,14.24
2022-09-11T00:48:04.048Z,14.41
2022-09-11T00:50:35.791Z,14.33
2022-09-11T00:53:09.990Z,14.40
2022-09-11T00:55:44.815Z,14.57
2022-09-11T00:58:19.574Z,14.62
2022-09-11T01:00:54.107Z,14.69
2022-09-11T01:03:27.597Z,14.79
2022-09-11T01:05:59.541Z,14.96
2022-09-11T01:08:32.066Z,14.99
2022-09-11T01:11:26.279Z,14.96
2022-09-11T01:14:05.041Z,15.17
2022-09-11T01:16:42.839Z,15.17
2022-09-11T01:19:39.362Z,15.26
2022-09-11T01:22:43.950Z,15.26
2022-09-11T01:25:30.317Z,15.29
2022-09-11T01:28:13.976Z,15.24
2022-09-11T01:30:54.343Z,15.04
2022-09-11T01:33:59.956Z,15.36
2022-09-11T01:36:53.178Z,15.04
2022-09-11T01:39:33.350Z,15.36
2022-09-11T01:42:10.752Z,15.13
2022-09-11T01:44:48.875Z,15.45
2022-09-11T01:47:22.110Z,15.50
2022-09-11T01:49:58.489Z,15.21
2022-09-11T01:52:50.281Z,15.26
2022-09-11T01:55:44.672Z,15.61
2022-09-11T01:58:23.193Z,15.46
2022-09-11T02:01:02.814Z,15.45
2022-09-11T02:03:39.286Z,15.42
2022-09-11T02:06:28.289Z,15.69
2022-09-11T02:09:06.147Z,15.44
2022-09-11T02:11:41.004Z,15.63
2022-09-11T02:14:18.176Z,15.73
2022-09-11T02:16:51.929Z,15.47
2022-09-11T02:19:27.515Z,15.50
2022-09-11T02:21:59.076Z,15.75
2022-09-11T02:24:30.549Z,15.83
2022-09-11T02:27:06.263Z,15.76
2022-09-11T02:29:39.108Z,15.83
2022-09-11T02:32:11.116Z,15.87
2022-09-11T02:34:45.286Z,15.86
2022-09-11T02:37:45.521Z,15.93
2022-09-11T02:40:31.304Z,15.75
2022-09-11T02:43:30.930Z,15.96
2022-09-11T02:46:24.175Z,15.97
2022-09-11T02:49:18.970Z,15.99
2022-09-11T02:52:12.832Z,16.02
2022-09-11T02:55:03.862Z,15.99
2022-09-11T02:57:42.426Z,16.01
2022-09-11T03:00:13.885Z,16.08
2022-09-11T03:02:47.563Z,15.95
2022-09-11T03:05:19.264Z,16.10
2022-09-11T03:07:50.644Z,16.09
2022-09-11T03:10:22.155Z,15.85
2022-09-11T03:12:55.201Z,16.08
2022-09-11T03:15:27.327Z,16.17
2022-09-11T03:17:58.717Z,16.16
2022-09-11T03:20:29.988Z,16.17
2022-09-11T03:23:01.390Z,16.04
2022-09-11T03:25:33.805Z,16.15
2022-09-11T03:28:05.623Z,16.13
2022-09-11T03:30:37.001Z,15.87
2022-09-11T03:33:08.880Z,16.12
2022-09-11T03:35:40.155Z,15.87
2022-09-11T03:38:12.245Z,16.05
2022-09-11T03:40:44.489Z,16.09
2022-09-11T03:43:16.645Z,16.14
2022-09-11T03:45:54.481Z,15.89
2022-09-11T03:48:26.351Z,15.90
2022-09-11T03:50:58.878Z,16.00
2022-09-11T03:53:32.888Z,16.06
2022-09-11T03:56:05.213Z,15.79
2022-09-11T03:58:37.096Z,15.82
2022-09-11T04:01:13.914Z,15.94
2022-09-11T04:03:45.376Z,15.85
2022-09-11T04:06:16.871Z,15.83
2022-09-11T04:08:48.180Z,15.85
2022-09-11T04:11:19.555Z,15.84
2022-09-11T04:13:51.828Z,15.87
2022-09-11T04:16:23.280Z,15.93
2022-09-11T04:18:55.550Z,15.87
2022-09-11T04:21:27.735Z,16.01
2022-09-11T04:24:00.297Z,15.97
2022-09-11T04:26:33.190Z,16.01
2022-09-11T04:29:04.597Z,15.96
2022-09-11T04:31:36.575Z,15.95
2022-09-11T04:34:09.446Z,16.01
2022-09-11T04:36:40.844Z,16.00
2022-09-11T04:39:12.196Z,16.03
2022-09-11T04:41:44.442Z,15.90
2022-09-11T04:44:15.906Z,16.01
2022-09-11T04:46:47.665Z,16.07
2022-09-11T04:49:19.225Z,16.02
2022-09-11T04:51:50.554Z,15.82
2022-09-11T04:54:22.074Z,16.02
2022-09-11T04:56:54.652Z,15.91
2022-09-11T04:59:26.019Z,15.89
2022-09-11T05:01:57.784Z,16.09
2022-09-11T05:04:29.220Z,16.06
2022-09-11T05:07:00.631Z,15.99
2022-09-11T05:09:31.990Z,16.02
2022-09-11T05:12:04.073Z,15.96
2022-09-11T05:14:35.781Z,16.00
2022-09-11T05:17:07.098Z,15.99
2022-09-11T05:19:38.891Z,15.79
2022-09-11T05:22:10.253Z,15.93
2022-09-11T05:24:41.712Z,15.85
2022-09-11T05:27:14.057Z,15.84
2022-09-11T05:29:45.769Z,15.95
2022-09-11T05:32:17.220Z,15.84
2022-09-11T05:34:48.940Z,15.89
2022-09-11T05:37:20.270Z,15.91
2022-09-11T05:39:51.921Z,15.90
2022-09-11T05:42:23.295Z,15.91
2022-09-11T05:44:55.013Z,15.72
2022-09-11T05:47:26.357Z,15.66
2022-09-11T05:49:57.826Z,15.95
2022-09-11T05:52:30.359Z,15.76
2022-09-11T05:55:02.010Z,15.73
2022-09-11T05:57:33.371Z,15.92
2022-09-11T06:00:05.579Z,15.97
2022-09-11T06:02:36.867Z,16.00
2022-09-11T06:05:09.031Z,15.84
2022-09-11T06:07:40.638Z,15.93
2022-09-11T06:10:12.524Z,16.03
2022-09-11T06:12:43.938Z,15.75
2022-09-11T06:15:36.356Z,16.03
2022-09-11T06:18:07.842Z,15.95
2022-09-11T06:20:40.294Z,16.09
2022-09-11T06:23:11.922Z,15.92
2022-09-11T06:25:43.261Z,16.09
2022-09-11T06:28:14.690Z,15.94
2022-09-11T06:30:49.050Z,15.90
2022-09-11T06:33:20.683Z,16.18
2022-09-11T06:35:58.640Z,16.20
2022-09-11T06:38:31.798Z,16.28
2022-09-11T06:41:05.430Z,16.23
2022-09-11T06:43:36.757Z,16.20
2022-09-11T06:46:19.898Z,16.14
2022-09-11T06:48:52.066Z,16.27
2022-09-11T06:51:23.906Z,16.09
2022-09-11T06:53:57.779Z,16.14
2022-09-11T06:56:32.312Z,16.42
2022-09-11T06:59:03.673Z,16.47
2022-09-11T07:01:35.318Z,16.55
2022-09-11T07:04:06.679Z,16.57
2022-09-11T07:06:38.574Z,16.57
2022-09-11T07:09:11.263Z,16.46
2022-09-11T07:11:44.864Z,16.69
2022-09-11T07:14:21.126Z,16.54
2022-09-11T07:16:55.160Z,16.76
2022-09-11T07:19:27.541Z,16.81
2022-09-11T07:21:59.163Z,16.56
2022-09-11T07:24:30.457Z,17.02
2022-09-11T07:27:01.861Z,17.12
2022-09-11T07:29:33.452Z,17.29
2022-09-11T07:32:04.866Z,17.02
2022-09-11T07:34:36.232Z,17.30
2022-09-11T07:37:07.588Z,17.18
2022-09-11T07:39:39.562Z,17.28
2022-09-11T07:42:11.013Z,17.30
2022-09-11T07:44:42.379Z,17.30
2022-09-11T07:47:13.765Z,17.11
2022-09-11T07:49:48.032Z,17.28
2022-09-11T07:52:20.532Z,17.29
2022-09-11T07:54:52.098Z,17.17
2022-09-11T07:57:24.193Z,17.36
2022-09-11T07:59:55.553Z,17.35
2022-09-11T08:02:26.952Z,17.37
2022-09-11T08:04:58.408Z,17.49
2022-09-11T08:07:29.716Z,17.48
2022-09-11T08:10:23.756Z,17.58
2022-09-11T08:12:55.703Z,17.70
2022-09-11T08:15:29.467Z,17.70
2022-09-11T08:18:00.902Z,17.73
2022-09-11T08:20:32.558Z,17.77
2022-09-11T08:23:03.986Z,17.60
2022-09-11T08:25:39.061Z,17.58
2022-09-11T08:28:11.175Z,17.70
2022-09-11T08:30:42.592Z,17.37
2022-09-11T08:33:14.032Z,17.31
2022-09-11T08:35:45.430Z,17.55
2022-09-11T08:38:17.836Z,17.56
2022-09-11T08:40:49.438Z,17.67
2022-09-11T08:43:33.303Z,17.76
2022-09-11T08:46:09.460Z,17.66
2022-09-11T08:49:10.772Z,18.05
2022-09-11T08:51:44.778Z,18.14
2022-09-11T08:54:27.588Z,18.01
2022-09-11T08:57:28.882Z,17.83
2022-09-11T09:00:19.445Z,17.84
2022-09-11T09:03:35.612Z,17.89
2022-09-11T09:06:43.361Z,18.43
2022-09-11T09:09:46.647Z,18.49
2022-09-11T09:12:36.825Z,18.67
2022-09-11T09:15:34.333Z,18.83
2022-09-11T09:18:17.700Z,18.90
2022-09-11T09:21:06.308Z,18.80
2022-09-11T09:24:08.401Z,18.90
2022-09-11T09:26:40.891Z,18.92
2022-09-11T09:29:22.800Z,19.09
2022-09-11T09:32:01.907Z,19.41
2022-09-11T09:34:37.369Z,19.63
2022-09-11T09:37:17.948Z,19.88
2022-09-11T09:39:50.573Z,20.02
2022-09-11T09:42:38.970Z,20.07
2022-09-11T09:45:39.741Z,20.05
2022-09-11T09:48:11.818Z,19.92
2022-09-11T09:50:44.673Z,19.71
2022-09-11T09:53:27.327Z,19.70
2022-09-11T09:56:00.488Z,19.48
2022-09-11T09:58:42.685Z,19.56
2022-09-11T10:01:39.512Z,20.00
2022-09-11T10:04:15.210Z,20.25
2022-09-11T10:06:48.660Z,20.34
2022-09-11T10:09:26.428Z,20.49
2022-09-11T10:12:04.106Z,20.76
2022-09-11T10:14:52.200Z,20.71
2022-09-11T10:17:32.864Z,20.84
2022-09-11T10:20:23.062Z,20.95
2022-09-11T10:22:55.554Z,20.98
2022-09-11T10:25:30.117Z,20.85
2022-09-11T10:28:11.306Z,21.27
2022-09-11T10:30:59.267Z,21.45
2022-09-11T10:33:40.500Z,21.59
2022-09-11T10:36:12.269Z,21.79
2022-09-11T10:38:48.189Z,22.16
2022-09-11T10:41:23.399Z,22.30
2022-09-11T10:44:04.103Z,22.56
2022-09-11T10:46:43.479Z,22.44
2022-09-11T10:49:21.823Z,22.29
2022-09-11T10:52:08.580Z,22.55
2022-09-11T10:54:55.299Z,22.38
2022-09-11T10:57:47.326Z,21.94
2022-09-11T11:00:22.747Z,21.50
2022-09-11T11:03:17.105Z,21.35
2022-09-11T11:06:07.407Z,21.36
2022-09-11T11:09:11.440Z,21.39
2022-09-11T11:11:59.463Z,21.62
2022-09-11T11:14:54.686Z,21.34
2022-09-11T11:17:45.112Z,21.45
2022-09-11T11:20:29.013Z,21.44
2022-09-11T11:23:16.274Z,21.60
2022-09-11T11:26:07.210Z,21.78
2022-09-11T11:28:54.181Z,22.02
2022-09-11T11:31:33.534Z,22.35
2022-09-11T11:34:16.958Z,22.56
2022-09-11T11:37:07.801Z,22.98
2022-09-11T11:39:57.305Z,22.99
2022-09-11T11:42:44.190Z,22.57
2022-09-11T11:45:27.682Z,22.28
2022-09-11T11:48:05.194Z,21.97
2022-09-11T11:50:44.415Z,22.00
2022-09-11T11:53:24.260Z,21.90
2022-09-11T11:56:37.643Z,22.13
2022-09-11T11:59:24.253Z,22.36
2022-09-11T12:02:02.265Z,22.68
2022-09-11T12:05:02.055Z,22.93
2022-09-11T12:07:36.697Z,22.76
2022-09-11T12:10:21.638Z,22.89
2022-09-11T12:12:58.452Z,23.01
2022-09-11T12:15:36.713Z,23.22
2022-09-11T12:18:11.104Z,23.19
2022-09-11T12:20:44.206Z,22.98
2022-09-11T12:23:30.671Z,23.32
2022-09-11T12:26:10.924Z,23.32
2022-09-11T12:28:42.579Z,23.15
2022-09-11T12:31:18.129Z,23.35
2022-09-11T12:33:51.322Z,23.28
2022-09-11T12:36:47.766Z,23.48
2022-09-11T12:39:24.997Z,23.36
2022-09-11T12:42:20.971Z,23.28
2022-09-11T12:44:52.270Z,23.19
2022-09-11T12:47:27.543Z,23.11
2022-09-11T12:50:07.337Z,23.23
2022-09-11T12:52:44.721Z,23.10
2022-09-11T12:55:28.358Z,23.06
2022-09-11T12:58:04.448Z,22.90
2022-09-11T13:00:43.122Z,23.03
2022-09-11T13:03:22.038Z,23.33
2022-09-11T13:05:57.048Z,23.50
2022-09-11T13:08:34.441Z,23.62
2022-09-11T13:11:38.107Z,23.74
2022-09-11T13:14:46.999Z,23.74
2022-09-11T13:17:30.578Z,23.45
2022-09-11T13:20:05.225Z,23.64
2022-09-11T13:22:37.462Z,23.46
2022-09-11T13:25:14.600Z,23.39
2022-09-11T13:27:52.566Z,23.43
2022-09-11T13:30:25.024Z,23.47
2022-09-11T13:33:07.760Z,23.71
2022-09-11T13:35:45.286Z,23.89
2022-09-11T13:38:35.659Z,23.91
2022-09-11T13:41:13.073Z,24.33
2022-09-11T13:43:48.679Z,24.55
2022-09-11T13:46:21.364Z,24.60
2022-09-11T13:48:57.830Z,24.40
2022-09-11T13:51:31.075Z,24.03
2022-09-11T13:54:14.356Z,23.68
2022-09-11T13:56:54.715Z,23.33
2022-09-11T13:59:44.483Z,22.72
2022-09-11T14:02:25.296Z,22.36
2022-09-11T14:05:22.053Z,22.48
2022-09-11T14:08:01.852Z,22.42
2022-09-11T14:10:42.368Z,22.45
2022-09-11T14:13:17.998Z,22.55
2022-09-11T14:15:51.882Z,22.55
2022-09-11T14:18:29.292Z,22.41
2022-09-11T14:21:04.006Z,22.09
2022-09-11T14:23:43.291Z,21.97
2022-09-11T14:26:23.061Z,21.53
2022-09-11T14:29:00.234Z,21.68
2022-09-11T14:31:46.232Z,21.46
2022-09-11T14:34:20.793Z,21.52
2022-09-11T14:37:07.884Z,21.78
2022-09-11T14:39:57.985Z,21.90
2022-09-11T14:42:31.692Z,22.04
2022-09-11T14:45:25.877Z,22.19
2022-09-11T14:47:57.221Z,22.18
2022-09-11T14:50:28.641Z,22.18
2022-09-11T14:52:59.937Z,22.00
2022-09-11T14:55:31.378Z,21.71
2022-09-11T14:58:03.823Z,21.50
2022-09-11T15:00:35.165Z,21.54
2022-09-11T15:03:06.603Z,21.49
2022-09-11T15:05:38.576Z,21.62
2022-09-11T15:08:10.756Z,21.72
2022-09-11T15:10:42.671Z,21.64
2022-09-11T15:13:14.448Z,21.91
2022-09-11T15:15:46.078Z,21.91
2022-09-11T15:18:18.307Z,21.97
2022-09-11T15:20:49.672Z,21.91
2022-09-11T15:23:21.100Z,21.78
2022-09-11T15:26:01.621Z,21.93
2022-09-11T15:28:33.150Z,21.89
2022-09-11T15:31:04.601Z,21.81
2022-09-11T15:33:36.115Z,21.83
2022-09-11T15:36:07.958Z,21.81
2022-09-11T15:38:40.980Z,21.77
2022-09-11T15:41:12.415Z,21.65
2022-09-11T15:43:45.173Z,21.52
2022-09-11T15:46:18.814Z,21.53
2022-09-11T15:48:50.583Z,21.62
2022-09-11T15:51:23.938Z,21.44
2022-09-11T15:54:02.462Z,21.47
2022-09-11T15:56:35.949Z,21.35
2022-09-11T15:59:08.107Z,21.13
2022-09-11T16:01:40.895Z,21.32
2022-09-11T16:04:14.905Z,21.22
2022-09-11T16:06:48.456Z,21.19
2022-09-11T16:09:29.098Z,20.88
2022-09-11T16:12:01.697Z,20.78
2022-09-11T16:14:35.346Z,20.76
2022-09-11T16:17:07.719Z,20.54
2022-09-11T16:19:39.087Z,20.71
2022-09-11T16:22:10.373Z,20.65
2022-09-11T16:24:42.434Z,20.36
2022-09-11T16:27:13.754Z,20.54
2022-09-11T16:30:25.850Z,20.47
2022-09-11T16:32:39.230Z,20.49
2022-09-11T16:35:13.340Z,20.41
2022-09-11T16:37:44.913Z,20.35
2022-09-11T16:40:16.451Z,20.08
2022-09-11T16:42:47.895Z,20.21
2022-09-11T16:45:19.716Z,19.96
2022-09-11T16:47:51.762Z,20.20
2022-09-11T16:50:24.291Z,20.11
2022-09-11T16:52:55.691Z,19.96
2022-09-11T16:55:27.060Z,19.96
2022-09-11T16:57:58.846Z,20.00
2022-09-11T17:00:30.230Z,19.92
2022-09-11T17:03:01.599Z,19.82
2022-09-11T17:05:32.921Z,19.84
2022-09-11T17:08:04.664Z,19.70
2022-09-11T17:10:36.085Z,19.77
2022-09-11T17:13:08.104Z,19.61
2022-09-11T17:15:43.527Z,19.38
2022-09-11T17:18:15.978Z,19.49
2022-09-11T17:20:47.471Z,19.39
2022-09-11T17:23:19.290Z,19.35
2022-09-11T17:25:50.980Z,19.30
2022-09-11T17:28:22.291Z,19.27
2022-09-11T17:30:53.634Z,19.07
2022-09-11T17:33:25.917Z,19.05
2022-09-11T17:35:57.304Z,18.93
2022-09-11T17:38:28.760Z,18.93
2022-09-11T17:41:03.853Z,18.62
2022-09-11T17:43:36.470Z,18.80
2022-09-11T17:46:13.552Z,18.57
2022-09-11T17:48:45.955Z,18.32
2022-09-11T17:51:21.218Z,18.51
2022-09-11T17:53:56.217Z,18.34
2022-09-11T17:56:32.396Z,18.27
2022-09-11T17:59:03.789Z,18.14
2022-09-11T18:01:35.236Z,17.95
2022-09-11T18:04:07.007Z,17.91
2022-09-11T18:06:38.928Z,17.63
2022-09-11T18:09:16.106Z,17.79
2022-09-11T18:11:49.867Z,17.74
2022-09-11T18:14:21.537Z,17.56
2022-09-11T18:16:52.904Z,17.51
2022-09-11T18:19:24.639Z,17.39
2022-09-11T18:21:56.071Z,17.31
2022-09-11T18:24:29.950Z,17.27
2022-09-11T18:27:01.490Z,17.15
2022-09-11T18:29:33.063Z,17.06
2022-09-11T18:32:04.566Z,17.04
2022-09-11T18:34:36.049Z,17.01
2022-09-11T18:37:07.741Z,16.86
2022-09-11T18:39:40.348Z,16.63
2022-09-11T18:42:11.731Z,16.79
2022-09-11T18:44:44.322Z,16.67
2022-09-11T18:47:15.655Z,16.60
2022-09-11T18:49:48.944Z,16.61
2022-09-11T18:52:25.439Z,16.48
2022-09-11T18:55:00.078Z,16.39
2022-09-11T18:57:31.572Z,16.37
2022-09-11T19:00:03.566Z,16.35
2022-09-11T19:02:36.255Z,16.24
2022-09-11T19:05:08.198Z,16.25
2022-09-11T19:07:40.027Z,16.18
2022-09-11T19:10:12.424Z,16.13
2022-09-11T19:12:46.890Z,16.11
2022-09-11T19:15:19.170Z,16.05
2022-09-11T19:17:51.618Z,15.90
2022-09-11T19:20:22.936Z,15.90
2022-09-11T19:22:54.893Z,15.78
2022-09-11T19:25:29.796Z,15.67
2022-09-11T19:28:04.653Z,15.65
2022-09-11T19:30:39.026Z,15.61
2022-09-11T19:33:12.825Z,15.37
2022-09-11T19:35:44.133Z,15.42
2022-09-11T19:38:16.602Z,15.32
2022-09-11T19:40:48.784Z,15.35
2022-09-11T19:43:24.874Z,15.24
2022-09-11T19:46:06.382Z,15.28
2022-09-11T19:48:38.267Z,15.18
2022-09-11T19:51:27.303Z,15.05
2022-09-11T19:54:00.726Z,15.03
2022-09-11T19:56:33.891Z,14.71
2022-09-11T19:59:07.098Z,14.87
2022-09-11T20:01:38.452Z,14.86
2022-09-11T20:04:11.304Z,14.85
2022-09-11T20:09:30.567Z,14.60
2022-09-11T20:12:03.277Z,14.60
2022-09-11T20:14:34.557Z,14.67
2022-09-11T20:17:08.798Z,14.57
2022-09-11T20:19:44.592Z,14.51
2022-09-11T20:22:15.922Z,14.43
2022-09-11T20:24:49.679Z,14.20
2022-09-11T20:27:20.937Z,14.35
2022-09-11T20:29:52.326Z,14.34
2022-09-11T20:32:23.848Z,14.29
2022-09-11T20:34:55.225Z,14.14
2022-09-11T20:37:26.532Z,14.28
2022-09-11T20:39:58.081Z,13.91
2022-09-11T20:42:29.828Z,14.22
2022-09-11T20:45:01.207Z,14.18
2022-09-11T20:47:32.652Z,14.09
2022-09-11T20:50:04.838Z,13.99
2022-09-11T20:52:39.526Z,14.07
2022-09-11T20:55:11.095Z,13.91
2022-09-11T20:57:42.478Z,13.93
2022-09-11T21:00:14.447Z,13.73
2022-09-11T21:02:45.857Z,13.84
2022-09-11T21:05:17.225Z,13.85
2022-09-11T21:07:48.591Z,13.78
2022-09-11T21:10:19.977Z,13.71
2022-09-11T21:12:52.347Z,13.71
2022-09-11T21:15:23.641Z,13.65
2022-09-11T21:17:55.206Z,13.63
2022-09-11T21:20:26.453Z,13.62
2022-09-11T21:22:57.824Z,13.65
2022-09-11T21:25:29.145Z,13.56
2022-09-11T21:28:00.615Z,13.49
2022-09-11T21:30:31.972Z,13.45
2022-09-11T21:33:03.418Z,13.23
2022-09-11T21:35:36.762Z,13.36
2022-09-11T21:38:08.718Z,13.39
2022-09-11T21:40:40.015Z,13.31
2022-09-11T21:43:11.296Z,13.30
2022-09-11T21:45:45.218Z,13.08
2022-09-11T21:48:16.589Z,13.19
2022-09-11T21:50:48.182Z,13.19
2022-09-11T21:53:20.256Z,13.19
2022-09-11T21:55:51.621Z,13.13
2022-09-11T21:58:23.106Z,12.84
2022-09-11T22:00:54.512Z,13.14
2022-09-11T22:03:26.558Z,12.91
2022-09-11T22:05:58.145Z,12.78
2022-09-11T22:08:29.452Z,12.94
2022-09-11T22:11:03.157Z,12.83
2022-09-11T22:13:35.575Z,12.98
2022-09-11T22:16:12.858Z,12.75
2022-09-11T22:18:48.525Z,12.85
2022-09-11T22:21:20.356Z,12.87
2022-09-11T22:23:52.412Z,12.77
2022-09-11T22:26:24.030Z,12.51
2022-09-11T22:28:57.290Z,12.73
2022-09-11T22:31:28.881Z,12.42
2022-09-11T22:34:00.304Z,12.65
2022-09-11T22:36:32.266Z,12.37
2022-09-11T22:39:05.350Z,12.55
2022-09-11T22:41:36.691Z,12.55
2022-09-11T22:44:10.979Z,12.59
2022-09-11T22:46:45.723Z,12.24
2022-09-11T22:49:19.546Z,12.50
2022-09-11T22:51:50.984Z,12.42
2022-09-11T22:54:22.414Z,12.40
2022-09-11T22:56:53.822Z,12.43
2022-09-11T22:59:26.363Z,12.41
2022-09-11T23:01:58.286Z,12.34
2022-09-11T23:04:29.715Z,12.17
2022-09-11T23:07:16.891Z,12.29
2022-09-11T23:09:49.604Z,12.26
2022-09-11T23:12:20.931Z,12.17
2022-09-11T23:14:54.162Z,12.27
2022-09-11T23:17:26.746Z,12.26
2022-09-11T23:19:58.083Z,11.93
2022-09-11T23:22:29.533Z,12.21
2022-09-11T23:25:00.997Z,12.15
2022-09-11T23:27:33.090Z,12.11
2022-09-11T23:30:05.002Z,12.06
2022-09-11T23:32:41.169Z,12.03
2022-09-11T23:35:13.191Z,11.94
2022-09-11T23:37:45.570Z,12.06
2022-09-11T23:40:17.557Z,11.80
2022-09-11T23:42:48.990Z,11.81
2022-09-11T23:45:20.729Z,12.05
2022-09-11T23:47:52.131Z,11.94
2022-09-11T23:50:23.381Z,11.70
2022-09-11T23:52:54.758Z,11.96
2022-09-11T23:55:26.198Z,11.85
2022-09-11T23:57:57.591Z,11.77
